Time;durP1;ratioP1;P1;durP2;ratioP2;P2;SDS_P1;SDS_P2;PMS_P1;PMS_P2;Temp;Humidity;BMP_temperature;BMP_pressure;BME280_temperature;BME280_humidity;BME280_pressure;Samples;Min_cycle;Max_cycle;Signal;HPM_P1;HPM_P2
2022/03/13 00:02:09;;;;;;;3.50;1.30;;;22.60;52.00;;;;;;4951369;28;20258;-57
2022/03/13 00:04:40;;;;;;;2.70;1.20;;;22.60;51.90;;;;;;4951176;28;20227;-56
2022/03/13 00:07:16;;;;;;;5.82;1.45;;;22.60;51.90;;;;;;4951521;28;20207;-55
2022/03/13 00:09:50;;;;;;;6.22;1.48;;;22.60;51.90;;;;;;4951713;28;20234;-56
2022/03/13 00:12:26;;;;;;;4.30;1.30;;;22.70;51.90;;;;;;4953842;28;20274;-54
2022/03/13 00:15:02;;;;;;;2.92;1.38;;;22.70;51.90;;;;;;4954509;28;20214;-51
2022/03/13 00:17:32;;;;;;;4.15;1.65;;;22.70;51.90;;;;;;4954782;28;20237;-55
2022/03/13 00:20:05;;;;;;;3.00;1.25;;;22.70;51.80;;;;;;4954733;28;20194;-58
2022/03/13 00:22:37;;;;;;;2.88;1.30;;;22.80;51.80;;;;;;4954447;28;20250;-56
2022/03/13 00:25:11;;;;;;;4.07;1.42;;;22.80;51.80;;;;;;4955122;28;20234;-54
2022/03/13 00:27:42;;;;;;;2.10;1.13;;;22.80;51.80;;;;;;4954586;28;20207;-55
2022/03/13 00:30:15;;;;;;;3.38;1.30;;;22.80;51.70;;;;;;4954083;28;20301;-56
2022/03/13 00:32:46;;;;;;;3.10;1.27;;;22.80;51.60;;;;;;4954523;28;20258;-54
2022/03/13 00:35:17;;;;;;;3.85;1.35;;;22.90;51.60;;;;;;4954692;28;20246;-56
2022/03/13 00:37:47;;;;;;;5.45;1.52;;;22.90;51.60;;;;;;4954460;28;20282;-62
2022/03/13 00:40:18;;;;;;;2.65;1.30;;;22.90;51.50;;;;;;4954253;28;20199;-56
2022/03/13 00:42:48;;;;;;;3.20;1.15;;;22.90;51.50;;;;;;4954639;28;20198;-56
2022/03/13 00:45:21;;;;;;;3.95;1.30;;;22.90;51.50;;;;;;4954124;28;20227;-55
2022/03/13 00:47:51;;;;;;;3.13;1.50;;;23.00;51.40;;;;;;4953950;28;20266;-52
2022/03/13 00:50:22;;;;;;;4.63;1.20;;;23.00;51.40;;;;;;4954069;28;20199;-58
2022/03/13 00:52:53;;;;;;;2.97;1.05;;;23.00;51.40;;;;;;4953950;28;20556;-53
2022/03/13 00:55:24;;;;;;;4.97;1.40;;;23.00;51.30;;;;;;4954134;28;20310;-62
2022/03/13 00:57:54;;;;;;;3.42;1.33;;;23.00;51.30;;;;;;4954053;28;20294;-57
2022/03/13 01:00:27;;;;;;;2.67;1.08;;;23.00;51.30;;;;;;4953992;28;20473;-56
2022/03/13 01:02:58;;;;;;;3.78;1.40;;;23.10;51.40;;;;;;4953716;28;20240;-58
2022/03/13 01:05:29;;;;;;;2.35;1.10;;;23.10;51.40;;;;;;4953827;28;20223;-58
2022/03/13 01:08:01;;;;;;;3.28;1.40;;;23.10;51.40;;;;;;4954059;29;20262;-56
2022/03/13 01:10:31;;;;;;;2.67;1.25;;;23.10;51.30;;;;;;4953709;28;20608;-61
2022/03/13 01:13:02;;;;;;;3.53;1.27;;;23.20;51.30;;;;;;4953099;28;20258;-49
2022/03/13 01:15:38;;;;;;;3.92;1.60;;;23.20;51.20;;;;;;4952925;28;20222;-50
2022/03/13 01:18:10;;;;;;;2.83;1.23;;;23.20;51.10;;;;;;4953397;28;20326;-58
2022/03/13 01:20:40;;;;;;;4.63;1.45;;;23.20;51.10;;;;;;4953840;28;20226;-51
2022/03/13 01:23:11;;;;;;;4.68;1.55;;;23.20;51.00;;;;;;4953048;28;20650;-51
2022/03/13 01:25:42;;;;;;;3.05;1.40;;;23.20;50.90;;;;;;4953832;28;20427;-61
2022/03/13 01:28:13;;;;;;;3.42;1.27;;;23.30;50.90;;;;;;4953859;28;20732;-49
2022/03/13 01:30:45;;;;;;;3.25;1.10;;;23.30;50.80;;;;;;4954143;28;20261;-54
2022/03/13 01:33:16;;;;;;;2.50;1.30;;;23.30;50.80;;;;;;4954519;28;20226;-51
2022/03/13 01:35:46;;;;;;;5.18;1.45;;;23.30;50.80;;;;;;4954374;28;20199;-57
2022/03/13 01:38:17;;;;;;;3.47;1.30;;;23.30;50.80;;;;;;4953386;28;20238;-51
2022/03/13 01:40:48;;;;;;;2.92;1.48;;;23.30;50.70;;;;;;4947000;28;20203;-58
2022/03/13 01:43:18;;;;;;;4.75;1.60;;;23.30;50.70;;;;;;4945102;29;20717;-55
2022/03/13 01:45:51;;;;;;;2.88;1.30;;;23.40;50.70;;;;;;4950978;28;20249;-51
2022/03/13 01:48:21;;;;;;;4.10;1.50;;;23.40;50.70;;;;;;4951598;28;20211;-54
2022/03/13 01:50:52;;;;;;;5.55;1.60;;;23.40;50.80;;;;;;4951381;28;20203;-56
2022/03/13 01:53:23;;;;;;;4.72;1.23;;;23.40;50.90;;;;;;4955993;28;20353;-53
2022/03/13 01:55:59;;;;;;;4.22;1.55;;;23.40;51.00;;;;;;4969965;28;20216;-54
2022/03/13 01:58:29;;;;;;;7.85;1.50;;;23.50;51.10;;;;;;4969477;28;20221;-54
2022/03/13 02:01:02;;;;;;;6.90;1.63;;;23.50;51.10;;;;;;4967297;28;20206;-49
2022/03/13 02:03:33;;;;;;;5.40;1.60;;;23.50;51.70;;;;;;4970383;28;20241;-53
2022/03/13 02:06:03;;;;;;;4.95;1.42;;;23.50;51.10;;;;;;4970752;28;20277;-51
2022/03/13 02:08:37;;;;;;;5.13;1.40;;;23.50;51.00;;;;;;4969887;28;20210;-56
2022/03/13 02:11:08;;;;;;;5.32;1.40;;;23.50;50.90;;;;;;4970314;28;20741;-48
2022/03/13 02:13:38;;;;;;;5.25;1.38;;;23.60;50.80;;;;;;4966875;28;20194;-60
2022/03/13 02:16:12;;;;;;;3.20;1.30;;;23.60;50.70;;;;;;4968990;28;20198;-55
2022/03/13 02:18:43;;;;;;;6.75;1.67;;;23.60;50.70;;;;;;4968483;28;20225;-56
2022/03/13 02:21:13;;;;;;;5.90;1.48;;;23.60;50.70;;;;;;4969853;28;20190;-51
2022/03/13 02:23:46;;;;;;;5.65;1.88;;;23.70;50.60;;;;;;4970018;28;20220;-61
2022/03/13 02:26:17;;;;;;;5.80;1.58;;;23.70;50.50;;;;;;4970388;28;20669;-58
2022/03/13 02:28:54;;;;;;;6.55;1.55;;;23.70;50.50;;;;;;4967663;28;20198;-57
2022/03/13 02:31:30;;;;;;;5.22;1.30;;;23.70;50.40;;;;;;4969152;28;20204;-56
2022/03/13 02:34:01;;;;;;;3.97;1.25;;;23.70;50.50;;;;;;4969611;28;20959;-54
2022/03/13 02:36:55;;;;;;;5.30;1.50;;;23.70;50.40;;;;;;4967873;28;20269;-52
2022/03/13 02:39:28;;;;;;;4.28;1.33;;;23.70;50.30;;;;;;4969665;28;20222;-51
2022/03/13 02:41:59;;;;;;;4.40;1.40;;;23.80;50.40;;;;;;4969569;28;20194;-53
2022/03/13 02:44:30;;;;;;;5.18;1.48;;;23.80;50.40;;;;;;4968273;28;20226;-53
2022/03/13 02:47:05;;;;;;;4.47;1.42;;;23.80;50.50;;;;;;4969929;28;20202;-60
2022/03/13 02:49:36;;;;;;;4.43;1.50;;;23.90;50.50;;;;;;4969166;28;20194;-54
2022/03/13 02:52:10;;;;;;;3.40;1.30;;;23.90;50.40;;;;;;4968443;28;20264;-57
2022/03/13 02:54:45;;;;;;;3.22;1.45;;;23.90;50.40;;;;;;4969139;28;20214;-54
2022/03/13 02:57:17;;;;;;;4.13;1.48;;;23.90;50.40;;;;;;4969061;28;20676;-55
2022/03/13 02:59:48;;;;;;;3.20;1.33;;;24.00;50.30;;;;;;4968931;28;20226;-63
2022/03/13 03:02:20;;;;;;;4.45;1.50;;;24.00;50.30;;;;;;4968897;28;20202;-55
2022/03/13 03:04:53;;;;;;;4.07;1.52;;;24.00;50.20;;;;;;4968729;28;20246;-54
2022/03/13 03:07:24;;;;;;;2.80;1.05;;;24.00;50.10;;;;;;4969550;28;20769;-57
2022/03/13 03:09:57;;;;;;;5.18;1.45;;;24.00;50.10;;;;;;4969332;28;20701;-49
2022/03/13 03:12:27;;;;;;;6.78;1.52;;;24.10;49.80;;;;;;4970129;28;20200;-53
2022/03/13 03:14:58;;;;;;;6.68;2.08;;;24.10;48.90;;;;;;4969596;28;20210;-52
2022/03/13 03:17:29;;;;;;;6.60;2.10;;;24.00;48.40;;;;;;4968392;28;20886;-53
2022/03/13 03:20:05;;;;;;;6.32;1.73;;;24.00;48.50;;;;;;4969033;28;20639;-51
2022/03/13 03:22:35;;;;;;;7.95;1.92;;;23.90;48.20;;;;;;4969353;28;20225;-53
2022/03/13 03:25:09;;;;;;;6.55;1.70;;;23.80;48.20;;;;;;4968507;28;20229;-49
2022/03/13 03:27:41;;;;;;;9.13;1.77;;;23.70;48.20;;;;;;4968909;28;20190;-58
2022/03/13 03:30:13;;;;;;;5.00;1.45;;;23.60;48.10;;;;;;4969501;28;20608;-61
2022/03/13 03:32:49;;;;;;;8.85;1.85;;;23.60;48.50;;;;;;4969822;28;20281;-53
2022/03/13 03:35:21;;;;;;;5.05;1.30;;;23.50;48.70;;;;;;4969960;28;20685;-62
2022/03/13 03:37:52;;;;;;;4.72;1.63;;;23.50;48.90;;;;;;4969136;28;20190;-57
2022/03/13 03:40:27;;;;;;;3.83;1.42;;;23.50;49.00;;;;;;4965435;28;20237;-57
2022/03/13 03:42:59;;;;;;;5.10;1.50;;;23.60;49.10;;;;;;4970543;28;20201;-56
2022/03/13 03:45:30;;;;;;;4.82;1.38;;;23.60;49.10;;;;;;4997667;23;20295;-60
2022/03/13 03:48:01;;;;;;;3.97;1.65;;;23.60;49.20;;;;;;4991923;28;20261;-58
2022/03/13 03:50:32;;;;;;;4.82;1.50;;;23.70;49.30;;;;;;4992379;28;20244;-59
2022/03/13 03:53:02;;;;;;;2.00;1.20;;;23.70;49.30;;;;;;4992504;28;20198;-60
2022/03/13 03:55:35;;;;;;;4.32;1.42;;;23.70;49.30;;;;;;4992502;28;20602;-60
2022/03/13 03:58:05;;;;;;;4.63;1.77;;;23.70;49.20;;;;;;4991665;28;20201;-59
2022/03/13 04:00:36;;;;;;;4.03;1.35;;;23.80;49.30;;;;;;4993697;28;20259;-59
2022/03/13 04:03:07;;;;;;;3.47;1.40;;;23.80;49.30;;;;;;4993980;28;20740;-60
2022/03/13 04:05:37;;;;;;;5.45;1.60;;;23.80;49.40;;;;;;4994006;28;20287;-58
2022/03/13 04:08:08;;;;;;;6.07;1.88;;;23.90;49.40;;;;;;4993815;28;20260;-55
2022/03/13 04:10:41;;;;;;;5.47;1.58;;;23.90;49.40;;;;;;4993788;28;20200;-59
2022/03/13 04:13:11;;;;;;;4.43;1.25;;;24.00;49.40;;;;;;4993784;28;20232;-59
2022/03/13 04:15:42;;;;;;;3.00;1.15;;;24.00;49.40;;;;;;4990748;28;20205;-59
2022/03/13 04:18:14;;;;;;;3.78;1.42;;;24.00;49.30;;;;;;4989653;28;20190;-60
2022/03/13 04:20:44;;;;;;;4.10;1.30;;;24.10;49.40;;;;;;4991382;28;20207;-59
2022/03/13 04:23:15;;;;;;;4.90;1.70;;;24.10;49.40;;;;;;4991873;28;20656;-58
2022/03/13 04:25:48;;;;;;;4.43;1.50;;;24.10;49.40;;;;;;4991783;28;20214;-59
2022/03/13 04:28:18;;;;;;;2.20;1.10;;;24.10;49.40;;;;;;4991647;28;20193;-59
2022/03/13 04:30:52;;;;;;;5.47;1.42;;;24.20;49.40;;;;;;4991539;28;20893;-58
2022/03/13 04:33:22;;;;;;;2.13;1.00;;;24.30;49.50;;;;;;4991362;28;20216;-59
2022/03/13 04:35:58;;;;;;;5.10;1.50;;;24.30;49.40;;;;;;4991192;28;20198;-60
2022/03/13 04:38:29;;;;;;;4.00;1.45;;;24.30;49.30;;;;;;4991401;28;20752;-60
2022/03/13 04:41:01;;;;;;;2.70;1.13;;;24.30;49.30;;;;;;4991070;28;20858;-60
2022/03/13 04:46:04;;;;;;;2.80;1.33;;;24.40;49.80;;;;;;4970254;28;20261;-55
2022/03/13 04:48:35;;;;;;;3.55;1.40;;;24.40;49.20;;;;;;4971017;28;20257;-57
2022/03/13 04:51:06;;;;;;;4.90;1.27;;;24.50;49.20;;;;;;4971594;28;20199;-59
2022/03/13 04:53:37;;;;;;;4.00;1.20;;;24.50;49.10;;;;;;4971413;28;20202;-57
2022/03/13 04:56:10;;;;;;;3.67;1.30;;;24.50;48.90;;;;;;4971541;28;20340;-54
2022/03/13 04:58:41;;;;;;;3.63;1.23;;;24.60;48.90;;;;;;4969556;28;20233;-61
2022/03/13 05:01:14;;;;;;;3.50;1.23;;;24.60;48.80;;;;;;4972224;28;20444;-60
2022/03/13 05:03:44;;;;;;;3.58;1.30;;;24.60;48.80;;;;;;4972031;28;20195;-60
2022/03/13 05:06:15;;;;;;;3.47;1.50;;;24.60;48.70;;;;;;4971586;28;20662;-57
2022/03/13 05:08:46;;;;;;;3.00;0.95;;;24.70;48.70;;;;;;4972098;28;20265;-62
2022/03/13 05:11:18;;;;;;;3.38;1.17;;;24.70;48.60;;;;;;4971170;28;20654;-59
2022/03/13 05:13:49;;;;;;;2.47;1.20;;;24.70;48.60;;;;;;4971960;28;20325;-60
2022/03/13 05:16:20;;;;;;;2.92;1.20;;;24.70;48.50;;;;;;4971609;28;20201;-55
2022/03/13 05:18:50;;;;;;;2.72;1.17;;;24.70;48.40;;;;;;4970872;28;20290;-61
2022/03/13 05:21:21;;;;;;;2.78;1.30;;;24.80;48.40;;;;;;4971512;28;20202;-60
2022/03/13 05:23:51;;;;;;;3.25;1.20;;;24.80;48.40;;;;;;4971637;28;20222;-61
2022/03/13 05:26:25;;;;;;;3.53;1.30;;;24.80;48.30;;;;;;4972197;28;20202;-63
2022/03/13 05:28:55;;;;;;;3.60;1.40;;;24.80;48.40;;;;;;4971556;28;20194;-61
2022/03/13 05:31:27;;;;;;;3.97;1.30;;;24.80;48.30;;;;;;4971579;28;20194;-61
2022/03/13 05:33:57;;;;;;;3.75;1.38;;;24.90;48.40;;;;;;4970802;28;20218;-62
2022/03/13 05:36:28;;;;;;;3.42;1.30;;;24.80;48.30;;;;;;4971581;28;20194;-61
2022/03/13 05:38:58;;;;;;;4.45;1.23;;;24.90;48.20;;;;;;4971031;28;20284;-60
2022/03/13 05:41:33;;;;;;;3.45;1.20;;;24.80;48.10;;;;;;4970858;28;20250;-61
2022/03/13 05:44:03;;;;;;;4.07;1.50;;;24.80;48.00;;;;;;4985547;23;20248;-52
2022/03/13 05:46:34;;;;;;;3.70;1.08;;;24.90;48.10;;;;;;4989570;28;20193;-58
2022/03/13 05:49:05;;;;;;;3.40;1.35;;;24.90;48.00;;;;;;4989170;28;20233;-58
2022/03/13 05:51:36;;;;;;;4.85;1.38;;;24.90;48.10;;;;;;4990559;28;20654;-56
2022/03/13 05:54:07;;;;;;;3.03;1.20;;;24.80;47.90;;;;;;4989438;28;20221;-58
2022/03/13 05:56:39;;;;;;;3.33;1.58;;;24.80;47.90;;;;;;4990232;28;20197;-58
2022/03/13 05:59:10;;;;;;;4.63;1.40;;;24.80;47.90;;;;;;4990626;28;20631;-58
2022/03/13 06:01:40;;;;;;;4.30;1.75;;;24.90;48.10;;;;;;4991668;28;20205;-57
2022/03/13 06:04:11;;;;;;;3.65;1.33;;;24.80;48.00;;;;;;4990786;28;20221;-58
2022/03/13 06:06:42;;;;;;;3.25;1.38;;;24.80;48.00;;;;;;4989917;28;20201;-58
2022/03/13 06:09:12;;;;;;;3.05;1.33;;;24.80;48.00;;;;;;4989596;28;20304;-57
2022/03/13 06:11:45;;;;;;;2.28;1.00;;;24.80;48.00;;;;;;4989454;28;20201;-59
2022/03/13 06:14:15;;;;;;;2.30;1.30;;;24.80;48.00;;;;;;4988899;28;20214;-58
2022/03/13 06:16:46;;;;;;;2.65;1.30;;;24.80;48.00;;;;;;4990655;28;20649;-58
2022/03/13 06:19:17;;;;;;;3.35;1.27;;;24.80;48.00;;;;;;4971687;28;20265;-58
2022/03/13 06:21:49;;;;;;;2.20;1.10;;;24.70;48.00;;;;;;4971742;28;20194;-59
2022/03/13 06:24:21;;;;;;;4.68;1.40;;;24.70;47.90;;;;;;4986481;28;20232;-60
2022/03/13 06:26:53;;;;;;;3.38;1.50;;;24.70;47.80;;;;;;4991360;28;20544;-57
2022/03/13 06:29:24;;;;;;;3.08;1.23;;;24.70;47.90;;;;;;4990901;28;20661;-57
2022/03/13 06:31:55;;;;;;;4.05;1.52;;;24.70;47.90;;;;;;4990810;28;20204;-58
2022/03/13 06:34:26;;;;;;;3.35;1.30;;;24.70;48.00;;;;;;4990693;28;20221;-59
2022/03/13 06:36:56;;;;;;;3.33;1.48;;;24.70;48.00;;;;;;4990689;28;20193;-58
2022/03/13 06:39:27;;;;;;;4.00;1.63;;;24.60;47.90;;;;;;4990270;28;20213;-59
2022/03/13 06:41:59;;;;;;;3.95;1.30;;;24.60;48.00;;;;;;4990669;28;20201;-59
2022/03/13 06:44:30;;;;;;;3.60;1.20;;;24.60;48.00;;;;;;5001585;23;20225;-60
2022/03/13 06:47:00;;;;;;;3.60;1.23;;;24.50;48.00;;;;;;4986631;28;20740;-61
2022/03/13 06:49:31;;;;;;;2.88;1.30;;;24.50;48.00;;;;;;4951899;28;20198;-60
2022/03/13 06:52:02;;;;;;;2.53;1.25;;;24.50;48.10;;;;;;4952047;28;20203;-60
2022/03/13 06:54:32;;;;;;;3.42;1.05;;;24.50;48.10;;;;;;4951620;28;20278;-61
2022/03/13 06:57:05;;;;;;;2.97;1.20;;;24.40;48.10;;;;;;4951568;28;20199;-60
2022/03/13 06:59:35;;;;;;;4.05;1.23;;;24.40;48.20;;;;;;4951569;28;20625;-60
2022/03/13 07:02:07;;;;;;;2.72;1.10;;;24.40;48.20;;;;;;4951613;28;20198;-60
2022/03/13 07:04:37;;;;;;;3.03;0.90;;;24.40;48.30;;;;;;4951842;28;20222;-61
2022/03/13 07:07:08;;;;;;;2.70;1.17;;;24.30;48.30;;;;;;4952134;28;20203;-61
2022/03/13 07:09:39;;;;;;;1.90;1.05;;;24.30;48.40;;;;;;4952309;28;20207;-60
2022/03/13 07:12:11;;;;;;;2.13;1.00;;;24.30;48.40;;;;;;4952121;28;20261;-61
2022/03/13 07:14:47;;;;;;;1.77;1.05;;;24.30;48.50;;;;;;4952425;28;20218;-60
2022/03/13 07:17:18;;;;;;;2.00;1.02;;;24.30;48.50;;;;;;4970375;28;20201;-61
2022/03/13 07:19:48;;;;;;;2.78;1.13;;;24.20;48.50;;;;;;4965265;28;20226;-59
2022/03/13 07:22:19;;;;;;;3.38;1.02;;;24.20;48.50;;;;;;4972380;28;20206;-60
2022/03/13 07:24:50;;;;;;;2.72;1.30;;;24.20;48.50;;;;;;4973631;28;20276;-59
2022/03/13 07:27:22;;;;;;;1.40;0.90;;;24.20;48.60;;;;;;4969421;28;20198;-57
2022/03/13 07:29:53;;;;;;;2.50;1.00;;;24.20;48.70;;;;;;4973413;28;20662;-58
2022/03/13 07:32:23;;;;;;;2.50;1.00;;;24.10;48.60;;;;;;4973498;28;20201;-60
2022/03/13 07:34:54;;;;;;;2.65;0.90;;;24.10;48.60;;;;;;4973818;28;20210;-60
2022/03/13 07:37:26;;;;;;;4.38;1.58;;;24.10;48.70;;;;;;4973693;28;20252;-61
2022/03/13 07:39:57;;;;;;;4.38;1.25;;;24.00;48.70;;;;;;4971658;28;20738;-61
2022/03/13 07:42:29;;;;;;;3.13;1.20;;;24.00;48.70;;;;;;4972931;28;20281;-61
2022/03/13 08:03:24;;;;;;;2.22;1.30;;;23.80;49.00;;;;;;5525123;23;20659;-58
2022/03/13 08:06:02;;;;;;;2.45;1.10;;;23.80;49.00;;;;;;4989763;28;20657;-55
2022/03/13 08:08:33;;;;;;;2.92;1.10;;;23.70;49.00;;;;;;4990288;28;20197;-54
2022/03/13 08:11:03;;;;;;;2.05;0.85;;;23.70;49.00;;;;;;4991378;28;20259;-58
2022/03/13 08:13:34;;;;;;;2.05;0.90;;;23.70;49.00;;;;;;4992524;28;20200;-57
2022/03/13 08:16:04;;;;;;;1.88;0.90;;;23.70;49.00;;;;;;4991647;28;20255;-54
2022/03/13 08:18:38;;;;;;;3.28;1.15;;;23.70;49.00;;;;;;4991437;28;20205;-51
2022/03/13 08:21:09;;;;;;;2.35;1.20;;;23.60;49.00;;;;;;4991327;28;20572;-56
2022/03/13 08:23:39;;;;;;;2.25;1.10;;;23.60;49.10;;;;;;4991355;28;20194;-58
2022/03/13 08:26:11;;;;;;;1.73;0.93;;;23.60;49.10;;;;;;4991740;28;20261;-58
2022/03/13 08:28:43;;;;;;;2.05;0.93;;;23.50;49.10;;;;;;4991448;28;20272;-58
2022/03/13 08:31:13;;;;;;;2.25;1.08;;;23.50;49.10;;;;;;4991325;28;20634;-57
2022/03/13 08:33:46;;;;;;;1.90;0.90;;;23.50;49.10;;;;;;4990916;28;20252;-57
2022/03/13 08:36:17;;;;;;;2.75;1.05;;;23.50;49.20;;;;;;4990972;28;20649;-57
2022/03/13 08:38:47;;;;;;;2.65;1.02;;;23.40;49.10;;;;;;4991410;28;20200;-56
2022/03/13 08:41:18;;;;;;;2.95;1.17;;;23.40;49.20;;;;;;4991121;28;20217;-58
2022/03/13 08:46:21;;;;;;;2.35;1.00;;;23.40;49.20;;;;;;4972048;28;20214;-55
2022/03/13 08:48:54;;;;;;;1.95;1.00;;;23.30;49.20;;;;;;4973298;28;20222;-59
2022/03/13 08:51:27;;;;;;;1.48;0.95;;;23.30;49.20;;;;;;4973422;28;20198;-59
2022/03/13 08:53:58;;;;;;;1.58;1.00;;;23.30;49.20;;;;;;4971400;28;20285;-59
2022/03/13 08:56:29;;;;;;;2.25;1.10;;;23.30;49.20;;;;;;4954092;28;20226;-56
2022/03/13 08:59:00;;;;;;;1.40;0.90;;;23.20;49.10;;;;;;4953964;28;20287;-60
2022/03/13 09:01:30;;;;;;;1.65;0.98;;;23.20;49.20;;;;;;4954316;28;20231;-60
2022/03/13 09:04:03;;;;;;;2.15;1.00;;;23.20;49.20;;;;;;4954224;28;20253;-58
2022/03/13 09:06:34;;;;;;;1.70;1.15;;;23.20;49.20;;;;;;4953939;28;20203;-59
2022/03/13 09:09:04;;;;;;;2.72;1.20;;;23.20;49.20;;;;;;4954029;28;20274;-59
2022/03/13 09:11:35;;;;;;;2.50;0.93;;;23.20;49.20;;;;;;4954262;28;20198;-59
2022/03/13 09:14:06;;;;;;;2.70;1.00;;;23.10;49.20;;;;;;4953435;28;20219;-60
2022/03/13 09:16:38;;;;;;;2.00;0.93;;;23.10;49.20;;;;;;4953477;28;20230;-60
2022/03/13 09:19:11;;;;;;;1.88;1.00;;;23.00;49.20;;;;;;4953399;28;20213;-59
2022/03/13 09:21:42;;;;;;;3.22;1.00;;;23.00;49.30;;;;;;4954092;28;20223;-60
2022/03/13 09:24:13;;;;;;;1.20;0.88;;;23.00;49.30;;;;;;4953730;28;20219;-60
2022/03/13 09:26:45;;;;;;;1.17;0.60;;;23.00;49.30;;;;;;4953733;28;20214;-60
2022/03/13 09:29:16;;;;;;;2.03;0.90;;;22.90;49.30;;;;;;4953466;28;20218;-58
2022/03/13 09:31:46;;;;;;;1.02;0.77;;;22.90;49.30;;;;;;4953739;28;20203;-58
2022/03/13 09:34:19;;;;;;;1.85;0.98;;;22.90;49.30;;;;;;4954140;28;20218;-57
2022/03/13 09:36:49;;;;;;;2.13;0.80;;;22.80;49.30;;;;;;4953128;28;20265;-58
2022/03/13 09:39:20;;;;;;;2.13;0.98;;;22.80;49.30;;;;;;4952248;28;20218;-58
2022/03/13 09:41:51;;;;;;;1.40;0.80;;;22.80;49.30;;;;;;4953141;28;20226;-57
2022/03/13 09:44:22;;;;;;;1.25;0.80;;;22.80;49.40;;;;;;4972740;23;20304;-56
2022/03/13 09:46:52;;;;;;;1.40;0.88;;;22.80;49.40;;;;;;4991736;28;20204;-58
2022/03/13 09:49:27;;;;;;;2.05;1.02;;;22.80;49.40;;;;;;4992133;28;20201;-59
2022/03/13 09:51:58;;;;;;;1.70;0.80;;;22.80;49.40;;;;;;4991993;28;20267;-57
2022/03/13 09:54:29;;;;;;;1.92;0.80;;;22.70;49.40;;;;;;4991665;28;20259;-59
2022/03/13 09:57:03;;;;;;;1.73;0.90;;;22.70;49.40;;;;;;4991479;28;20198;-58
2022/03/13 09:59:34;;;;;;;2.17;0.98;;;22.70;49.40;;;;;;4991476;28;20259;-59
2022/03/13 10:02:08;;;;;;;1.83;0.90;;;22.60;49.40;;;;;;4991797;28;20237;-58
2022/03/13 10:04:40;;;;;;;2.65;0.88;;;22.60;49.40;;;;;;4991773;28;20220;-59
2022/03/13 10:07:12;;;;;;;1.90;1.08;;;22.60;49.40;;;;;;4991484;28;20656;-59
2022/03/13 10:09:46;;;;;;;1.80;1.00;;;22.50;49.40;;;;;;4991519;28;20198;-58
2022/03/13 10:12:18;;;;;;;1.52;0.98;;;22.50;49.40;;;;;;4991513;28;20197;-58
2022/03/13 10:15:04;;;;;;;2.25;0.90;;;22.50;49.50;;;;;;4989623;28;20213;-58
2022/03/13 10:17:35;;;;;;;3.22;0.90;;;22.50;49.50;;;;;;4991672;28;20209;-58
2022/03/13 10:20:19;;;;;;;2.20;1.17;;;22.40;49.50;;;;;;4991334;28;20219;-59
2022/03/13 10:22:52;;;;;;;2.15;1.00;;;22.40;49.50;;;;;;4991654;28;20198;-59
2022/03/13 10:25:32;;;;;;;1.63;0.85;;;22.40;49.50;;;;;;4991406;28;20217;-56
2022/03/13 10:28:22;;;;;;;0.80;0.77;;;22.40;49.50;;;;;;4991358;28;20197;-58
2022/03/13 10:31:11;;;;;;;1.85;0.80;;;22.30;49.50;;;;;;4991333;28;20255;-57
2022/03/13 10:33:57;;;;;;;0.98;0.70;;;22.30;49.50;;;;;;4990094;28;20201;-54
2022/03/13 10:36:35;;;;;;;1.85;0.90;;;22.30;49.50;;;;;;4990745;28;20732;-57
2022/03/13 10:39:07;;;;;;;2.78;0.80;;;22.30;49.50;;;;;;4991033;28;20869;-52
2022/03/13 10:41:46;;;;;;;1.60;0.75;;;22.20;49.50;;;;;;4990838;28;20229;-55
2022/03/13 10:44:18;;;;;;;2.13;1.00;;;22.20;49.60;;;;;;5014193;23;20273;-58
2022/03/13 10:46:54;;;;;;;3.28;1.00;;;22.20;49.60;;;;;;4951869;28;20266;-58
2022/03/13 10:49:42;;;;;;;1.58;0.80;;;22.20;49.60;;;;;;4971240;28;20261;-57
2022/03/13 10:52:41;;;;;;;1.65;0.90;;;22.10;49.60;;;;;;4970975;28;20204;-58
2022/03/13 10:55:24;;;;;;;1.15;0.60;;;22.10;49.60;;;;;;4970796;28;20229;-56
2022/03/13 10:57:56;;;;;;;2.05;0.90;;;22.10;49.60;;;;;;4970169;28;20194;-58
2022/03/13 11:00:27;;;;;;;1.40;0.75;;;22.10;49.60;;;;;;4971098;28;20248;-58
2022/03/13 11:03:11;;;;;;;1.77;0.73;;;22.00;49.60;;;;;;4971075;28;20198;-57
2022/03/13 11:05:41;;;;;;;1.88;0.80;;;22.00;49.70;;;;;;4971163;28;20690;-57
2022/03/13 11:08:15;;;;;;;1.98;1.10;;;21.90;49.60;;;;;;4970917;28;20202;-57
2022/03/13 11:10:46;;;;;;;1.85;0.82;;;21.90;49.60;;;;;;4970877;28;20202;-57
2022/03/13 11:13:21;;;;;;;1.77;0.98;;;21.90;49.70;;;;;;4967633;28;20246;-58
2022/03/13 11:15:52;;;;;;;0.88;0.80;;;21.90;49.60;;;;;;4952263;28;20301;-57
2022/03/13 11:18:25;;;;;;;1.52;0.85;;;21.90;49.70;;;;;;4964146;28;20206;-54
2022/03/13 11:20:55;;;;;;;1.70;1.00;;;21.90;49.70;;;;;;4970799;28;20748;-57
2022/03/13 11:23:32;;;;;;;2.17;0.93;;;21.80;49.70;;;;;;4971041;28;20265;-58
2022/03/13 11:26:03;;;;;;;1.20;0.60;;;21.80;49.70;;;;;;4970651;28;20253;-57
2022/03/13 11:28:35;;;;;;;1.55;0.88;;;21.80;49.70;;;;;;4965326;28;20605;-59
2022/03/13 11:31:25;;;;;;;1.60;0.70;;;21.80;49.70;;;;;;4954021;28;20538;-58
2022/03/13 11:34:13;;;;;;;1.63;0.90;;;21.80;49.70;;;;;;4951591;28;20581;-57
2022/03/13 11:36:44;;;;;;;2.50;1.00;;;21.70;49.70;;;;;;4951837;28;20779;-59
2022/03/13 11:39:27;;;;;;;1.15;0.70;;;21.70;49.70;;;;;;4951650;28;20655;-58
2022/03/13 11:41:58;;;;;;;1.67;0.80;;;21.70;49.80;;;;;;4951658;28;20230;-59
2022/03/13 11:44:44;;;;;;;0.85;0.70;;;21.70;49.70;;;;;;4979080;23;20296;-60
2022/03/13 11:47:27;;;;;;;1.63;0.90;;;21.60;49.70;;;;;;4990402;28;20205;-57
2022/03/13 11:49:58;;;;;;;1.48;0.80;;;21.60;49.70;;;;;;4990209;28;20213;-55
2022/03/13 11:52:31;;;;;;;2.35;0.77;;;21.60;49.70;;;;;;4990438;28;20248;-57
2022/03/13 11:55:04;;;;;;;1.27;1.00;;;21.60;49.80;;;;;;4990360;28;20222;-57
2022/03/13 11:57:50;;;;;;;1.75;1.00;;;21.50;49.80;;;;;;4989993;28;20675;-57
2022/03/13 12:00:34;;;;;;;1.63;0.70;;;21.50;49.80;;;;;;4989590;28;20204;-57
2022/03/13 12:03:14;;;;;;;1.77;0.70;;;21.50;50.40;;;;;;4990015;28;20661;-57
2022/03/13 12:05:57;;;;;;;1.58;0.75;;;21.50;49.80;;;;;;4990168;28;20311;-57
2022/03/13 12:08:48;;;;;;;1.90;0.80;;;21.40;49.80;;;;;;4992848;28;20201;-58
2022/03/13 12:11:42;;;;;;;1.10;0.88;;;21.40;49.80;;;;;;4993840;28;20252;-57
2022/03/13 12:14:13;;;;;;;1.95;0.70;;;21.40;49.90;;;;;;4993841;28;20207;-58
2022/03/13 12:16:45;;;;;;;2.15;0.95;;;21.40;49.90;;;;;;4993604;28;20205;-56
2022/03/13 12:19:19;;;;;;;1.55;0.90;;;21.30;49.90;;;;;;4974812;28;20708;-56
2022/03/13 12:21:49;;;;;;;1.35;0.82;;;21.30;49.90;;;;;;4974511;28;20261;-57
2022/03/13 12:24:21;;;;;;;2.53;0.80;;;21.30;49.90;;;;;;4993287;28;20360;-54
2022/03/13 12:26:53;;;;;;;1.73;0.80;;;21.30;50.00;;;;;;4993339;28;20197;-57
2022/03/13 12:29:24;;;;;;;2.25;0.90;;;21.30;50.00;;;;;;4993153;28;20268;-57
2022/03/13 12:31:54;;;;;;;0.95;0.75;;;21.30;50.00;;;;;;4993433;28;20252;-57
2022/03/13 12:34:27;;;;;;;1.35;0.85;;;21.20;50.00;;;;;;4990500;28;20217;-58
2022/03/13 12:37:02;;;;;;;1.55;0.85;;;21.20;50.00;;;;;;4993469;28;20248;-57
2022/03/13 12:39:33;;;;;;;1.60;0.80;;;21.20;50.00;;;;;;4993079;28;20208;-56
2022/03/13 12:42:07;;;;;;;1.38;0.75;;;21.20;50.00;;;;;;4993157;28;20229;-57
2022/03/13 12:47:38;;;;;;;2.15;0.73;;;21.20;50.00;;;;;;5610246;23;20220;-54
2022/03/13 12:50:13;;;;;;;0.90;0.70;;;21.10;50.60;;;;;;4993505;28;20602;-57
2022/03/13 12:52:45;;;;;;;1.60;0.77;;;21.10;50.00;;;;;;4992557;28;20606;-50
2022/03/13 12:55:16;;;;;;;1.88;0.90;;;21.10;50.00;;;;;;4992574;28;20225;-53
2022/03/13 12:57:53;;;;;;;1.88;0.70;;;21.10;50.00;;;;;;4992499;28;20201;-54
2022/03/13 13:00:32;;;;;;;1.75;0.80;;;21.00;50.00;;;;;;4992509;28;20212;-52
2022/03/13 13:03:06;;;;;;;1.38;0.80;;;21.00;50.10;;;;;;4992892;28;20275;-57
2022/03/13 13:05:37;;;;;;;2.08;0.93;;;21.00;50.60;;;;;;4992904;28;20225;-56
2022/03/13 13:08:10;;;;;;;1.73;0.70;;;21.00;50.10;;;;;;4992515;28;20207;-59
2022/03/13 13:10:43;;;;;;;1.25;0.70;;;21.00;50.10;;;;;;4992806;28;20280;-54
2022/03/13 13:13:26;;;;;;;1.63;0.80;;;21.00;50.10;;;;;;4992630;28;20212;-49
2022/03/13 13:15:59;;;;;;;2.00;0.90;;;20.90;50.10;;;;;;4992401;28;20225;-54
2022/03/13 13:18:30;;;;;;;1.33;0.70;;;20.90;50.10;;;;;;4991668;28;20626;-55
2022/03/13 13:21:12;;;;;;;1.08;0.85;;;20.90;50.10;;;;;;4991945;28;20193;-56
2022/03/13 13:23:42;;;;;;;1.55;0.60;;;20.90;50.10;;;;;;4992649;28;20248;-48
2022/03/13 13:26:13;;;;;;;1.65;0.70;;;20.90;50.10;;;;;;4992248;28;20924;-53
2022/03/13 13:28:59;;;;;;;1.80;0.80;;;20.90;50.10;;;;;;4989129;28;20642;-56
2022/03/13 13:31:30;;;;;;;1.10;0.70;;;20.80;50.10;;;;;;4992299;28;20198;-52
2022/03/13 13:34:14;;;;;;;1.05;0.60;;;20.80;50.10;;;;;;4992068;28;20205;-55
2022/03/13 13:36:45;;;;;;;1.63;0.80;;;20.80;50.10;;;;;;4991957;28;20204;-56
2022/03/13 13:39:15;;;;;;;1.25;0.60;;;20.80;50.10;;;;;;4992496;28;20201;-57
2022/03/13 13:42:02;;;;;;;1.73;0.70;;;20.80;50.10;;;;;;4992288;28;20307;-53
2022/03/13 13:44:37;;;;;;;0.88;0.70;;;20.70;50.10;;;;;;4992586;28;20252;-53